createdAt,value
2018-08-13T00:01:47.691Z,99193.94
2018-08-13T00:04:16.451Z,99190.65
2018-08-13T00:06:45.268Z,99191.34
2018-08-13T00:09:18.128Z,99187.66
2018-08-13T00:11:47.037Z,99189.76
2018-08-13T00:14:15.836Z,99197.72
2018-08-13T00:16:44.610Z,99201.83
2018-08-13T00:19:13.407Z,99204.30
2018-08-13T00:21:42.127Z,99203.56
2018-08-13T00:24:10.895Z,99204.97
2018-08-13T00:26:39.634Z,99202.33
2018-08-13T00:29:08.426Z,99198.38
2018-08-13T00:31:37.229Z,99202.33
2018-08-13T00:34:06.067Z,99202.63
2018-08-13T00:36:34.907Z,99203.26
2018-08-13T00:39:03.793Z,99201.09
2018-08-13T00:41:32.597Z,99205.33
2018-08-13T00:44:01.387Z,99194.17
2018-08-13T00:46:30.160Z,99199.00
2018-08-13T00:48:58.937Z,99202.63
2018-08-13T00:51:27.755Z,99201.76
2018-08-13T00:53:56.556Z,99202.14
2018-08-13T00:56:25.462Z,99201.82
2018-08-13T00:58:54.272Z,99202.86
2018-08-13T01:01:23.083Z,99208.52
2018-08-13T01:03:52.326Z,99209.02
2018-08-13T01:06:21.119Z,99206.02
2018-08-13T01:08:49.971Z,99207.98
2018-08-13T01:11:19.058Z,99206.91
2018-08-13T01:13:47.850Z,99202.09
2018-08-13T01:16:16.669Z,99196.58
2018-08-13T01:18:45.486Z,99195.45
2018-08-13T01:21:14.275Z,99189.67
2018-08-13T01:23:43.102Z,99192.17
2018-08-13T01:26:11.959Z,99186.70
2018-08-13T01:28:40.714Z,99185.54
2018-08-13T01:31:09.409Z,99193.50
2018-08-13T01:33:38.192Z,99181.29
2018-08-13T01:36:07.111Z,99184.28
2018-08-13T01:38:35.864Z,99186.07
2018-08-13T01:41:04.675Z,99191.80
2018-08-13T01:43:33.421Z,99189.09
2018-08-13T01:46:02.192Z,99191.43
2018-08-13T01:48:30.969Z,99192.48
2018-08-13T01:50:59.734Z,99187.98
2018-08-13T01:53:28.509Z,99188.16
2018-08-13T01:55:57.291Z,99180.87
2018-08-13T01:58:26.040Z,99176.46
2018-08-13T02:00:54.797Z,99181.48
2018-08-13T02:03:23.559Z,99177.55
2018-08-13T02:05:52.334Z,99177.55
2018-08-13T02:08:21.067Z,99179.88
2018-08-13T02:10:49.852Z,99169.69
2018-08-13T02:13:18.610Z,99177.55
2018-08-13T02:15:47.389Z,99179.25
2018-08-13T02:18:16.177Z,99171.65
2018-08-13T02:20:44.997Z,99171.16
2018-08-13T02:23:13.758Z,99176.92
2018-08-13T02:25:42.522Z,99177.34
2018-08-13T02:28:11.311Z,99174.46
2018-08-13T02:30:40.016Z,99175.23
2018-08-13T02:33:08.829Z,99178.61
2018-08-13T02:35:37.593Z,99177.45
2018-08-13T02:38:06.317Z,99176.96
2018-08-13T02:40:35.184Z,99174.91
2018-08-13T02:43:03.964Z,99180.41
2018-08-13T02:45:32.731Z,99180.64
2018-08-13T02:48:01.534Z,99177.91
2018-08-13T02:50:30.356Z,99181.59
2018-08-13T02:52:59.192Z,99172.92
2018-08-13T02:55:28.091Z,99175.14
2018-08-13T02:57:56.992Z,99179.69
2018-08-13T03:00:25.807Z,99170.14
2018-08-13T03:02:54.644Z,99174.77
2018-08-13T03:05:23.349Z,99176.68
2018-08-13T03:07:52.109Z,99179.12
2018-08-13T03:10:20.914Z,99179.30
2018-08-13T03:12:49.717Z,99185.22
2018-08-13T03:15:18.518Z,99188.56
2018-08-13T03:17:47.467Z,99183.54
2018-08-13T03:20:16.244Z,99184.27
2018-08-13T03:22:45.010Z,99189.83
2018-08-13T03:25:13.797Z,99200.17
2018-08-13T03:27:42.589Z,99195.59
2018-08-13T03:30:12.855Z,99192.77
2018-08-13T03:32:42.160Z,99192.36
2018-08-13T03:35:11.109Z,99191.43
2018-08-13T03:37:40.024Z,99189.52
2018-08-13T03:40:10.926Z,99188.22
2018-08-13T03:42:39.839Z,99188.00
2018-08-13T03:45:10.445Z,99188.95
2018-08-13T03:47:39.615Z,99181.70
2018-08-13T03:50:09.784Z,99190.91
2018-08-13T03:52:38.640Z,99186.73
2018-08-13T03:55:09.045Z,99184.30
2018-08-13T03:57:37.874Z,99182.08
2018-08-13T04:00:10.550Z,99182.01
2018-08-13T04:02:39.413Z,99186.16
2018-08-13T04:05:08.876Z,99180.23
2018-08-13T04:07:38.335Z,99172.86
2018-08-13T04:10:10.178Z,99181.39
2018-08-13T04:12:40.792Z,99181.71
2018-08-13T04:15:10.960Z,99183.91
2018-08-13T04:17:39.727Z,99177.96
2018-08-13T04:20:10.012Z,99181.34
2018-08-13T04:22:38.858Z,99182.65
2018-08-13T04:25:08.900Z,99183.91
2018-08-13T04:27:38.243Z,99187.23
2018-08-13T04:30:10.266Z,99191.90
2018-08-13T04:32:39.064Z,99183.50
2018-08-13T04:35:07.874Z,99186.60
2018-08-13T04:37:36.648Z,99184.18
2018-08-13T04:40:08.262Z,99186.27
2018-08-13T04:42:37.052Z,99192.04
2018-08-13T04:45:07.445Z,99187.41
2018-08-13T04:47:36.375Z,99188.09
2018-08-13T04:50:06.377Z,99183.30
2018-08-13T04:52:35.139Z,99181.19
2018-08-13T04:55:04.094Z,99180.30
2018-08-13T04:57:32.910Z,99186.66
2018-08-13T05:00:01.695Z,99177.05
2018-08-13T05:02:30.581Z,99184.52
2018-08-13T05:04:59.342Z,99188.96
2018-08-13T05:07:28.213Z,99183.78
2018-08-13T05:09:57.061Z,99177.09
2018-08-13T05:12:25.935Z,99182.59
2018-08-13T05:14:54.726Z,99176.70
2018-08-13T05:17:23.592Z,99185.80
2018-08-13T05:19:52.402Z,99181.59
2018-08-13T05:22:21.212Z,99184.94
2018-08-13T05:24:50.039Z,99183.50
2018-08-13T05:27:18.819Z,99186.06
2018-08-13T05:29:47.597Z,99180.23
2018-08-13T05:32:16.383Z,99184.17
2018-08-13T05:34:45.158Z,99181.27
2018-08-13T05:37:13.959Z,99185.37
2018-08-13T05:39:42.762Z,99180.63
2018-08-13T05:42:11.587Z,99186.41
2018-08-13T05:44:40.372Z,99183.80
2018-08-13T05:47:09.445Z,99181.80
2018-08-13T05:49:38.270Z,99182.83
2018-08-13T05:52:07.074Z,99183.22
2018-08-13T05:54:35.874Z,99173.17
2018-08-13T05:57:04.678Z,99172.08
2018-08-13T05:59:33.591Z,99171.56
2018-08-13T06:02:02.533Z,99170.89
2018-08-13T06:04:31.699Z,99169.05
2018-08-13T06:07:00.575Z,99169.23
2018-08-13T06:09:29.424Z,99174.02
2018-08-13T06:11:58.212Z,99173.06
2018-08-13T06:14:27.141Z,99165.98
2018-08-13T06:16:56.036Z,99164.58
2018-08-13T06:19:25.431Z,99159.16
2018-08-13T06:21:54.217Z,99161.80
2018-08-13T06:24:23.174Z,99166.76
2018-08-13T06:26:52.721Z,99165.63
2018-08-13T06:29:21.716Z,99164.76
2018-08-13T06:31:53.206Z,99166.07
2018-08-13T06:34:23.283Z,99159.73
2018-08-13T06:36:53.733Z,99141.12
2018-08-13T06:39:22.963Z,99161.75
2018-08-13T06:41:55.119Z,99163.42
2018-08-13T06:44:24.435Z,99166.26
2018-08-13T06:46:59.806Z,99167.35
2018-08-13T06:49:29.502Z,99166.43
2018-08-13T06:51:59.432Z,99163.17
2018-08-13T06:54:32.725Z,99162.33
2018-08-13T06:57:01.681Z,99165.02
2018-08-13T06:59:30.686Z,99167.75
2018-08-13T07:02:00.113Z,99163.97
2018-08-13T07:04:29.315Z,99172.17
2018-08-13T07:06:59.591Z,99164.89
2018-08-13T07:09:33.876Z,99149.56
2018-08-13T07:12:17.296Z,99162.16
2018-08-13T07:14:53.876Z,99160.60
2018-08-13T07:17:28.239Z,99156.47
2018-08-13T07:20:41.961Z,99156.17
2018-08-13T07:27:52.195Z,99152.09
2018-08-13T07:33:15.822Z,99152.96
2018-08-13T07:35:44.792Z,99151.03
2018-08-13T07:38:13.724Z,99157.64
2018-08-13T07:40:42.836Z,99148.84
2018-08-13T07:43:12.386Z,99157.36
2018-08-13T07:45:41.719Z,99151.87
2018-08-13T07:48:12.564Z,99147.97
2018-08-13T07:53:24.912Z,99145.50
2018-08-13T07:55:55.274Z,99139.10
2018-08-13T07:58:25.278Z,99139.30
2018-08-13T08:01:10.546Z,99142.11
2018-08-13T08:03:48.859Z,99132.80
2018-08-13T08:06:17.935Z,99134.62
2018-08-13T08:08:47.443Z,99131.95
2018-08-13T08:11:24.099Z,99125.45
2018-08-13T08:14:03.567Z,99125.63
2018-08-13T08:16:44.937Z,99123.15
2018-08-13T08:19:16.726Z,99127.23
2018-08-13T08:21:49.252Z,99129.91
2018-08-13T08:24:18.050Z,99128.38
2018-08-13T08:26:50.444Z,99123.06
2018-08-13T08:29:19.375Z,99123.28
2018-08-13T08:31:51.218Z,99131.08
2018-08-13T08:34:20.041Z,99121.84
2018-08-13T08:36:49.292Z,99125.65
2018-08-13T08:54:46.752Z,99106.05
2018-08-13T08:57:15.537Z,99103.95
2018-08-13T08:59:44.427Z,99101.81
2018-08-13T09:02:13.268Z,99103.90
2018-08-13T09:04:42.054Z,99102.47
2018-08-13T09:07:10.935Z,99102.23
2018-08-13T09:09:39.737Z,99103.11
2018-08-13T09:12:10.135Z,99094.53
2018-08-13T09:14:38.986Z,99092.44
2018-08-13T09:17:07.957Z,99094.30
2018-08-13T09:19:47.894Z,99089.67
2018-08-13T09:22:27.850Z,99085.09
2018-08-13T09:25:07.670Z,99083.00
2018-08-13T09:27:47.601Z,99077.02
2018-08-13T09:30:27.475Z,99081.16
2018-08-13T09:33:07.566Z,99080.93
2018-08-13T09:35:36.415Z,99085.55
2018-08-13T09:38:05.660Z,99072.86
2018-08-13T09:40:34.853Z,99067.47
2018-08-13T09:43:03.827Z,99065.03
2018-08-13T09:45:32.711Z,99055.07
2018-08-13T09:48:01.531Z,99058.16
2018-08-13T09:50:30.320Z,99053.17
2018-08-13T09:52:59.205Z,99054.07
2018-08-13T09:55:28.150Z,99056.70
2018-08-13T09:57:56.922Z,99044.62
2018-08-13T10:00:30.808Z,99042.14
2018-08-13T10:02:59.601Z,99047.89
2018-08-13T10:05:28.427Z,99035.69
2018-08-13T10:07:57.240Z,99037.38
2018-08-13T10:10:26.078Z,99047.05
2018-08-13T10:12:54.948Z,99033.45
2018-08-13T10:15:23.762Z,99036.04
2018-08-13T10:17:52.665Z,99036.71
2018-08-13T10:20:22.079Z,99032.61
2018-08-13T10:22:50.998Z,99035.13
2018-08-13T10:25:19.832Z,99029.25
2018-08-13T10:27:48.693Z,99028.90
2018-08-13T10:30:18.051Z,99023.94
2018-08-13T10:32:47.271Z,99021.66
2018-08-13T10:35:16.146Z,99014.78
2018-08-13T10:37:45.161Z,99016.63
2018-08-13T10:40:17.117Z,99015.68
2018-08-13T10:42:46.410Z,99010.52
2018-08-13T10:45:15.515Z,99008.44
2018-08-13T10:47:44.385Z,99007.16
2018-08-13T10:50:14.334Z,99015.75
2018-08-13T10:52:43.499Z,99003.48
2018-08-13T10:55:14.710Z,99001.50
2018-08-13T10:57:44.032Z,98999.06
2018-08-13T11:00:16.269Z,98989.70
2018-08-13T11:02:45.478Z,98984.71
2018-08-13T11:05:15.344Z,98988.90
2018-08-13T11:07:44.338Z,98982.41
2018-08-13T11:10:15.445Z,98971.66
2018-08-13T11:12:44.403Z,98963.50
2018-08-13T11:15:16.967Z,98963.44
2018-08-13T11:17:46.007Z,98961.28
2018-08-13T11:20:14.943Z,98966.31
2018-08-13T11:22:44.106Z,98967.94
2018-08-13T11:25:14.607Z,98963.16
2018-08-13T11:27:43.842Z,98967.39
2018-08-13T11:30:15.453Z,98961.96
2018-08-13T11:32:44.397Z,98961.53
2018-08-13T11:35:13.781Z,98959.06
2018-08-13T11:37:42.712Z,98959.53
2018-08-13T11:40:14.838Z,98959.89
2018-08-13T11:42:43.800Z,98952.95
2018-08-13T11:45:12.643Z,98953.14
2018-08-13T11:47:41.838Z,98945.83
2018-08-13T11:50:17.668Z,98938.33
2018-08-13T11:52:48.836Z,98935.47
2018-08-13T11:55:18.304Z,98933.66
2018-08-13T11:57:48.279Z,98936.11
2018-08-13T12:00:17.118Z,98926.86
2018-08-13T12:02:46.088Z,98930.28
2018-08-13T12:05:15.994Z,98927.72
2018-08-13T12:07:45.516Z,98921.63
2018-08-13T12:10:14.965Z,98929.05
2018-08-13T12:12:44.275Z,98912.38
2018-08-13T12:15:13.915Z,98914.11
2018-08-13T12:17:43.274Z,98906.82
2018-08-13T12:20:17.281Z,98906.27
2018-08-13T12:22:46.556Z,98906.76
2018-08-13T12:25:18.770Z,98907.30
2018-08-13T12:27:47.655Z,98904.67
2018-08-13T12:30:16.705Z,98901.69
2018-08-13T12:32:45.622Z,98898.77
2018-08-13T12:35:14.573Z,98892.61
2018-08-13T12:37:43.481Z,98898.53
2018-08-13T12:40:12.464Z,98893.52
2018-08-13T12:42:41.398Z,98889.02
2018-08-13T12:45:13.457Z,98881.66
2018-08-13T12:47:42.409Z,98879.91
2018-08-13T12:50:13.017Z,98877.75
2018-08-13T12:52:42.723Z,98879.84
2018-08-13T12:55:12.029Z,98878.62
2018-08-13T12:57:40.972Z,98875.16
2018-08-13T13:00:11.834Z,98871.43
2018-08-13T13:02:41.072Z,98864.74
2018-08-13T13:05:11.128Z,98863.52
2018-08-13T13:07:40.107Z,98859.48
2018-08-13T13:10:11.460Z,98863.00
2018-08-13T13:12:40.880Z,98861.12
2018-08-13T13:15:11.502Z,98860.12
2018-08-13T13:17:40.813Z,98862.67
2018-08-13T13:20:16.764Z,98862.06
2018-08-13T13:22:45.801Z,98855.42
2018-08-13T13:25:14.672Z,98855.63
2018-08-13T13:27:43.480Z,98856.94
2018-08-13T13:30:13.845Z,98846.48
2018-08-13T13:32:42.995Z,98841.48
2018-08-13T13:35:13.503Z,98842.56
2018-08-13T13:37:42.474Z,98842.02
2018-08-13T13:40:13.124Z,98839.62
2018-08-13T13:42:42.688Z,98845.38
2018-08-13T13:45:12.252Z,98841.61
2018-08-13T13:47:41.244Z,98840.28
2018-08-13T13:50:12.691Z,98844.08
2018-08-13T13:52:41.794Z,98843.02
2018-08-13T13:55:10.730Z,98834.86
2018-08-13T13:57:39.596Z,98836.50
2018-08-13T14:00:15.222Z,98831.96
2018-08-13T14:02:44.256Z,98827.55
2018-08-13T14:05:13.324Z,98826.08
2018-08-13T14:07:42.596Z,98819.08
2018-08-13T14:10:14.145Z,98820.17
2018-08-13T14:12:43.383Z,98814.77
2018-08-13T14:15:13.780Z,98814.64
2018-08-13T14:17:43.160Z,98809.95
2018-08-13T14:20:12.255Z,98812.85
2018-08-13T14:22:41.496Z,98803.22
2018-08-13T14:25:12.262Z,98802.48
2018-08-13T14:27:41.455Z,98803.53
2018-08-13T14:30:15.036Z,98801.77
2018-08-13T14:32:43.946Z,98809.63
2018-08-13T14:35:12.802Z,98806.92
2018-08-13T14:37:42.025Z,98802.87
2018-08-13T14:40:12.494Z,98804.55
2018-08-13T14:42:41.837Z,98809.95
2018-08-13T14:45:12.323Z,98806.98
2018-08-13T14:47:42.255Z,98797.20
2018-08-13T14:50:11.931Z,98800.84
2018-08-13T14:52:42.327Z,98798.39
2018-08-13T14:55:11.691Z,98795.70
2018-08-13T14:57:40.662Z,98792.30
2018-08-13T15:00:27.010Z,98794.18
2018-08-13T15:02:56.344Z,98793.14
2018-08-13T15:05:25.186Z,98795.22
2018-08-13T15:07:54.117Z,98791.33
2018-08-13T15:10:24.151Z,98790.42
2018-08-13T15:12:53.163Z,98789.68
2018-08-13T15:15:22.102Z,98796.19
2018-08-13T15:17:51.066Z,98789.98
2018-08-13T15:20:22.817Z,98790.97
2018-08-13T15:22:51.846Z,98789.57
2018-08-13T15:25:20.822Z,98782.25
2018-08-13T15:27:49.773Z,98776.11
2018-08-13T15:30:19.406Z,98784.53
2018-08-13T15:32:49.115Z,98783.03
2018-08-13T15:35:17.951Z,98777.14
2018-08-13T15:37:47.468Z,98783.59
2018-08-13T15:40:16.421Z,98782.48
2018-08-13T15:42:45.213Z,98772.41
2018-08-13T15:45:16.451Z,98779.29
2018-08-13T15:47:45.559Z,98778.03
2018-08-13T15:50:16.202Z,98782.31
2018-08-13T15:52:45.461Z,98780.92
2018-08-13T15:55:14.542Z,98771.28
2018-08-13T15:57:44.011Z,98773.81
2018-08-13T16:00:22.671Z,98773.88
2018-08-13T16:02:51.835Z,98767.38
2018-08-13T16:05:20.967Z,98765.67
2018-08-13T16:07:50.252Z,98773.20
2018-08-13T16:10:19.530Z,98770.17
2018-08-13T16:12:48.397Z,98770.20
2018-08-13T16:15:17.319Z,98771.39
2018-08-13T16:17:46.199Z,98759.16
2018-08-13T16:20:16.947Z,98770.84
2018-08-13T16:22:46.483Z,98771.59
2018-08-13T16:25:15.707Z,98778.84
2018-08-13T16:27:45.211Z,98781.41
2018-08-13T16:30:24.007Z,98778.34
2018-08-13T16:32:52.940Z,98772.33
2018-08-13T16:35:22.566Z,98772.74
2018-08-13T16:37:51.515Z,98772.30
2018-08-13T16:40:20.701Z,98777.53
2018-08-13T16:42:50.116Z,98776.92
2018-08-13T16:45:19.968Z,98772.44
2018-08-13T16:47:48.787Z,98783.11
2018-08-13T16:50:25.366Z,98784.70
2018-08-13T16:52:54.339Z,98779.61
2018-08-13T16:55:24.082Z,98776.36
2018-08-13T16:57:52.917Z,98774.19
2018-08-13T17:00:24.720Z,98772.12
2018-08-13T17:02:53.774Z,98781.30
2018-08-13T17:05:22.736Z,98777.98
2018-08-13T17:07:51.803Z,98775.48
2018-08-13T17:10:23.611Z,98775.42
2018-08-13T17:12:53.175Z,98769.80
2018-08-13T17:15:22.225Z,98776.51
2018-08-13T17:17:52.672Z,98777.08
2018-08-13T17:20:26.574Z,98779.14
2018-08-13T17:22:55.511Z,98777.05
2018-08-13T17:25:24.396Z,98782.83
2018-08-13T17:27:53.306Z,98785.02
2018-08-13T17:30:23.800Z,98784.56
2018-08-13T17:32:53.842Z,98781.93
2018-08-13T17:35:28.761Z,98788.73
2018-08-13T17:37:57.819Z,98786.58
2018-08-13T17:40:26.913Z,98792.37
2018-08-13T17:42:56.429Z,98793.67
2018-08-13T17:45:25.424Z,98799.06
2018-08-13T17:47:54.382Z,98795.28
2018-08-13T17:50:23.797Z,98795.34
2018-08-13T17:52:52.726Z,98804.11
2018-08-13T17:55:21.595Z,98803.98
2018-08-13T17:57:50.536Z,98809.20
2018-08-13T18:00:21.719Z,98804.00
2018-08-13T18:02:50.568Z,98813.36
2018-08-13T18:05:21.482Z,98808.95
2018-08-13T18:07:50.704Z,98808.80
2018-08-13T18:10:22.508Z,98804.75
2018-08-13T18:12:51.422Z,98808.60
2018-08-13T18:15:20.485Z,98801.69
2018-08-13T18:17:49.636Z,98813.56
2018-08-13T18:20:18.709Z,98818.34
2018-08-13T18:22:47.689Z,98823.48
2018-08-13T18:25:17.020Z,98823.00
2018-08-13T18:27:47.285Z,98826.73
2018-08-13T18:30:19.992Z,98825.83
2018-08-13T18:32:49.004Z,98824.11
2018-08-13T18:35:18.145Z,98829.64
2018-08-13T18:37:47.207Z,98826.25
2018-08-13T18:40:19.376Z,98836.19
2018-08-13T18:42:48.412Z,98831.84
2018-08-13T18:45:17.463Z,98837.21
2018-08-13T18:47:47.229Z,98838.11
2018-08-13T18:50:18.298Z,98837.27
2018-08-13T18:52:48.087Z,98834.05
2018-08-13T18:55:18.301Z,98831.98
2018-08-13T18:57:47.658Z,98834.77
2018-08-13T19:00:18.773Z,98841.56
2018-08-13T19:02:47.860Z,98841.72
2018-08-13T19:05:18.293Z,98835.16
2018-08-13T19:07:47.719Z,98837.97
2018-08-13T19:10:17.328Z,98836.10
2018-08-13T19:12:46.361Z,98836.59
2018-08-13T19:15:19.222Z,98843.89
2018-08-13T19:17:48.315Z,98839.84
2018-08-13T19:20:17.284Z,98844.38
2018-08-13T19:22:46.333Z,98841.67
2018-08-13T19:25:18.806Z,98843.19
2018-08-13T19:27:47.777Z,98841.04
2018-08-13T19:30:17.744Z,98849.30
2018-08-13T19:32:47.801Z,98844.14
2018-08-13T19:35:16.662Z,98842.47
2018-08-13T19:37:45.701Z,98844.38
2018-08-13T19:40:16.655Z,98847.72
2018-08-13T19:42:46.501Z,98857.92
2018-08-13T19:45:16.480Z,98860.38
2018-08-13T19:47:45.891Z,98863.39
2018-08-13T19:50:14.931Z,98873.52
2018-08-13T19:52:45.037Z,98877.48
2018-08-13T19:55:14.370Z,98873.37
2018-08-13T19:57:43.183Z,98869.53
2018-08-13T20:00:21.701Z,98872.02
2018-08-13T20:02:51.174Z,98875.88
2018-08-13T20:05:21.441Z,98871.45
2018-08-13T20:07:50.486Z,98870.11
2018-08-13T20:10:19.354Z,98872.81
2018-08-13T20:12:48.410Z,98872.27
2018-08-13T20:15:17.352Z,98877.77
2018-08-13T20:17:46.433Z,98889.03
2018-08-13T20:20:16.558Z,98893.67
2018-08-13T20:22:46.217Z,98892.86
2018-08-13T20:25:16.311Z,98890.67
2018-08-13T20:27:45.735Z,98891.52
2018-08-13T20:30:16.766Z,98893.97
2018-08-13T20:32:46.919Z,98895.06
2018-08-13T20:35:15.818Z,98885.23
2018-08-13T20:37:45.118Z,98884.92
2018-08-13T20:40:15.891Z,98894.26
2018-08-13T20:42:45.248Z,98888.47
2018-08-13T20:45:16.069Z,98889.02
2018-08-13T20:47:45.280Z,98890.70
2018-08-13T20:50:15.998Z,98896.71
2018-08-13T20:52:45.443Z,98898.09
2018-08-13T20:55:17.584Z,98903.02
2018-08-13T20:57:47.169Z,98906.84
2018-08-13T21:00:17.439Z,98916.59
2018-08-13T21:02:47.271Z,98911.09
2018-08-13T21:05:16.679Z,98911.89
2018-08-13T21:07:46.458Z,98913.61
2018-08-13T21:10:17.957Z,98920.15
2018-08-13T21:12:46.849Z,98926.06
2018-08-13T21:15:16.216Z,98922.58
2018-08-13T21:17:45.231Z,98927.11
2018-08-13T21:20:22.451Z,98923.89
2018-08-13T21:22:51.445Z,98935.11
2018-08-13T21:25:20.375Z,98927.16
2018-08-13T21:27:49.291Z,98933.98
2018-08-13T21:30:18.272Z,98934.25
2018-08-13T21:32:47.449Z,98937.20
2018-08-13T21:35:17.345Z,98939.07
2018-08-13T21:37:46.522Z,98935.25
2018-08-13T21:40:15.402Z,98935.55
2018-08-13T21:42:44.682Z,98931.45
2018-08-13T21:45:13.767Z,98929.48
2018-08-13T21:47:42.624Z,98932.22
2018-08-13T21:50:18.950Z,98929.91
2018-08-13T21:52:48.406Z,98924.63
2018-08-13T21:55:17.295Z,98927.91
2018-08-13T21:57:46.209Z,98935.56
2018-08-13T22:00:20.520Z,98930.30
2018-08-13T22:02:49.606Z,98934.20
2018-08-13T22:05:18.451Z,98930.66
2018-08-13T22:07:47.581Z,98939.27
2018-08-13T22:10:16.836Z,98938.23
2018-08-13T22:12:45.706Z,98943.70
2018-08-13T22:15:21.515Z,98942.40
2018-08-13T22:17:50.299Z,98947.88
2018-08-13T22:20:19.133Z,98942.86
2018-08-13T22:22:48.335Z,98942.74
2018-08-13T22:25:22.135Z,98943.61
2018-08-13T22:27:50.999Z,98948.27
2018-08-13T22:30:19.839Z,98955.48
2018-08-13T22:32:48.674Z,98959.27
2018-08-13T22:35:17.585Z,98959.95
2018-08-13T22:37:46.467Z,98956.43
2018-08-13T22:40:17.562Z,98959.30
2018-08-13T22:42:46.591Z,98958.57
2018-08-13T22:45:17.517Z,98958.17
2018-08-13T22:47:46.350Z,98962.69
2018-08-13T22:50:15.313Z,98966.97
2018-08-13T22:52:44.120Z,98959.56
2018-08-13T22:55:14.309Z,98963.87
2018-08-13T22:57:43.142Z,98966.00
2018-08-13T23:00:14.924Z,98959.99
2018-08-13T23:02:44.452Z,98969.08
2018-08-13T23:05:15.889Z,98961.72
2018-08-13T23:07:44.720Z,98964.09
2018-08-13T23:10:16.166Z,98965.30
2018-08-13T23:12:45.791Z,98964.98
2018-08-13T23:15:15.674Z,98963.92
2018-08-13T23:17:44.815Z,98954.56
2018-08-13T23:20:18.447Z,98958.77
2018-08-13T23:22:50.159Z,98954.67
2018-08-13T23:25:20.247Z,98958.83
2018-08-13T23:27:50.487Z,98953.74
2018-08-13T23:30:19.372Z,98953.25
2018-08-13T23:32:49.402Z,98913.31
2018-08-13T23:35:19.244Z,98945.81
2018-08-13T23:37:48.296Z,98943.92
2018-08-13T23:40:17.193Z,98945.52
2018-08-13T23:42:46.074Z,98939.67
2018-08-13T23:45:19.165Z,98939.20
2018-08-13T23:47:48.054Z,98938.66
2018-08-13T23:50:18.756Z,98938.66
2018-08-13T23:52:48.307Z,98937.39
2018-08-13T23:55:26.087Z,98935.53
2018-08-13T23:57:55.354Z,98932.12
